Time;durP1;ratioP1;P1;durP2;ratioP2;P2;SDS_P1;SDS_P2;PMS_P1;PMS_P2;Temp;Humidity;BMP_temperature;BMP_pressure;BME280_temperature;BME280_humidity;BME280_pressure;Samples;Min_cycle;Max_cycle;Signal;HPM_P1;HPM_P2
2023/10/12 00:02:27;;;;;;;33.80;8.70;;;;;;;14.90;nan;101319.94;5036433;28;20041;-78
2023/10/12 00:05:06;;;;;;;28.23;8.23;;;;;;;14.80;nan;101304.81;5036051;28;20056;-78
2023/10/12 00:07:34;;;;;;;21.55;6.53;;;;;;;14.70;nan;101317.44;5036511;28;20033;-77
2023/10/12 00:10:02;;;;;;;29.92;7.90;;;;;;;14.63;nan;101319.91;5018933;28;20033;-78
2023/10/12 00:12:29;;;;;;;30.10;6.78;;;;;;;14.58;nan;101327.50;5036640;28;20258;-77
2023/10/12 00:14:55;;;;;;;28.77;6.60;;;;;;;14.53;nan;101327.16;5035886;28;20466;-77
2023/10/12 00:17:23;;;;;;;33.70;5.93;;;;;;;14.47;nan;101330.44;5035535;28;20041;-76
2023/10/12 00:19:51;;;;;;;28.77;7.28;;;;;;;14.40;nan;101327.50;5035133;28;20123;-76
2023/10/12 00:22:16;;;;;;;24.52;5.93;;;;;;;14.40;nan;101330.19;5034777;28;20090;-77
2023/10/12 00:24:43;;;;;;;27.98;7.18;;;;;;;14.37;nan;101325.16;5017158;28;20470;-76
2023/10/12 00:27:14;;;;;;;17.52;7.22;;;;;;;14.33;nan;101329.16;5034988;28;20331;-78
2023/10/12 00:29:40;;;;;;;24.35;6.60;;;;;;;14.32;nan;101337.31;5017311;28;20029;-78
2023/10/12 00:32:06;;;;;;;22.85;5.75;;;;;;;14.29;nan;101336.63;5034782;28;20119;-79
2023/10/12 00:34:37;;;;;;;22.02;7.15;;;;;;;14.29;nan;101323.22;5017277;28;20029;-77
2023/10/12 00:37:03;;;;;;;21.05;6.85;;;;;;;14.26;nan;101333.41;5034579;28;20063;-78
2023/10/12 00:39:43;;;;;;;22.83;6.13;;;;;;;14.25;nan;101348.59;5034703;28;20474;-77
2023/10/12 00:42:10;;;;;;;22.08;6.72;;;;;;;14.25;nan;101339.75;5018941;28;20116;-78
2023/10/12 00:44:40;;;;;;;30.77;6.65;;;;;;;14.27;nan;101341.28;5034858;28;20373;-77
2023/10/12 00:47:12;;;;;;;26.90;7.20;;;;;;;14.28;nan;101353.66;5016971;28;20401;-77
2023/10/12 00:49:48;;;;;;;23.98;6.70;;;;;;;14.30;nan;101340.13;5034053;28;20033;-77
2023/10/12 00:52:23;;;;;;;21.42;6.75;;;;;;;14.29;nan;101347.31;5034399;28;20133;-77
2023/10/12 00:54:55;;;;;;;25.60;6.30;;;;;;;14.27;nan;101335.94;5034366;28;20029;-77
2023/10/12 00:57:22;;;;;;;19.15;5.60;;;;;;;14.26;nan;101322.72;5035225;28;20072;-78
2023/10/12 00:59:50;;;;;;;17.60;5.97;;;;;;;14.23;nan;101320.34;5016632;28;20030;-78
2023/10/12 01:02:17;;;;;;;18.80;5.22;;;;;;;14.19;nan;101326.97;5034945;28;20037;-78
2023/10/12 01:04:44;;;;;;;16.88;4.65;;;;;;;14.13;nan;101327.59;5034112;28;20156;-77
2023/10/12 01:07:19;;;;;;;19.65;5.68;;;;;;;14.11;nan;101331.25;5034265;28;20044;-77
2023/10/12 01:09:45;;;;;;;17.52;4.10;;;;;;;14.07;nan;101324.50;5034574;28;20033;-78
2023/10/12 01:12:14;;;;;;;20.83;5.20;;;;;;;14.05;nan;101315.78;5034150;28;20030;-77
2023/10/12 01:14:45;;;;;;;14.13;4.03;;;;;;;14.04;nan;101319.44;5016070;28;20033;-77
2023/10/12 01:17:16;;;;;;;11.98;4.35;;;;;;;14.03;nan;101316.91;5034503;28;20114;-78
2023/10/12 01:19:44;;;;;;;10.30;4.35;;;;;;;14.01;nan;101295.66;5034324;28;20029;-79
2023/10/12 01:22:14;;;;;;;11.65;4.00;;;;;;;14.01;nan;101303.69;5034068;28;20142;-78
2023/10/12 01:27:15;;;;;;;16.65;4.47;;;;;;;14.00;nan;101294.00;5033817;28;20427;-77
2023/10/12 01:29:41;;;;;;;12.50;4.18;;;;;;;14.01;nan;101297.50;5033208;28;20037;-77
2023/10/12 01:34:36;;;;;;;9.88;4.18;;;;;;;14.00;nan;101307.38;5033543;28;20045;-78
2023/10/12 01:37:21;;;;;;;10.63;4.25;;;;;;;14.02;nan;101313.41;5033285;28;20118;-79
2023/10/12 01:45:16;;;;;;;11.45;3.85;;;;;;;-145.82;100.00;64029.03;5033165;28;20037;-79
2023/10/12 01:47:44;;;;;;;16.02;4.35;;;;;;;14.04;nan;101314.09;5033601;28;20072;-78
2023/10/12 01:50:10;;;;;;;13.48;4.18;;;;;;;-145.82;100.00;64029.03;5015288;28;20045;-77
2023/10/12 01:52:35;;;;;;;8.35;3.80;;;;;;;-145.82;100.00;64029.03;5033130;28;20037;-77
2023/10/12 01:55:01;;;;;;;16.73;4.30;;;;;;;-145.82;100.00;64029.03;5033074;28;20034;-78
2023/10/12 01:57:31;;;;;;;10.18;3.97;;;;;;;-145.82;100.00;64029.03;5033078;28;20425;-78
2023/10/12 01:59:58;;;;;;;10.53;3.43;;;;;;;-145.82;100.00;64029.03;5033263;28;20438;-77
2023/10/12 02:02:24;;;;;;;9.55;3.17;;;;;;;-145.82;100.00;64029.03;5032840;28;20276;-77
2023/10/12 02:04:51;;;;;;;12.90;5.38;;;;;;;14.11;nan;101303.66;5032784;28;20148;-77
2023/10/12 02:07:16;;;;;;;10.15;3.60;;;;;;;14.17;nan;101304.88;5033432;28;20482;-78
2023/10/12 02:09:44;;;;;;;6.60;3.17;;;;;;;-145.82;100.00;64029.03;5032812;28;20036;-77
2023/10/12 02:12:12;;;;;;;11.60;3.55;;;;;;;-145.82;100.00;64029.03;5032844;28;20033;-78
2023/10/12 02:14:41;;;;;;;8.30;3.20;;;;;;;14.08;nan;101288.72;5032651;28;20033;-78
2023/10/12 02:17:08;;;;;;;6.72;3.00;;;;;;;-145.82;100.00;64029.03;5032637;28;20037;-79
2023/10/12 02:19:44;;;;;;;7.63;2.75;;;;;;;-145.82;100.00;64029.03;5014636;28;20567;-78
2023/10/12 02:22:24;;;;;;;7.10;2.25;;;;;;;-145.82;100.00;64029.03;5032486;28;20034;-78
2023/10/12 02:27:34;;;;;;;9.88;2.53;;;;;;;-145.82;100.00;64029.03;5032826;28;20117;-77
2023/10/12 02:29:59;;;;;;;10.73;2.47;;;;;;;-145.82;100.00;64029.03;5032694;28;20108;-77
2023/10/12 02:32:25;;;;;;;4.72;2.40;;;;;;;-145.82;100.00;64029.03;5032618;28;20449;-77
2023/10/12 02:34:59;;;;;;;6.38;2.28;;;;;;;-145.82;100.00;64029.03;5014687;28;20477;-78
2023/10/12 02:37:27;;;;;;;7.90;2.38;;;;;;;-145.82;100.00;64029.03;5032842;28;20029;-77
2023/10/12 02:39:56;;;;;;;4.20;2.22;;;;;;;-145.82;100.00;64029.03;5032752;28;20053;-78
2023/10/12 02:42:22;;;;;;;5.45;2.28;;;;;;;-145.82;100.00;64029.03;5033318;28;20140;-78
2023/10/12 02:47:23;;;;;;;4.90;1.90;;;;;;;-145.82;100.00;64029.03;5033393;28;20477;-78
2023/10/12 02:49:49;;;;;;;4.10;1.65;;;;;;;-145.82;100.00;64029.03;5033313;28;20029;-77
2023/10/12 02:52:15;;;;;;;5.97;2.13;;;;;;;-145.82;100.00;64029.03;5032600;28;20033;-78
2023/10/12 02:54:52;;;;;;;6.70;1.92;;;;;;;-145.82;100.00;64029.03;5031787;28;20037;-78
2023/10/12 02:57:28;;;;;;;3.88;1.70;;;;;;;-145.82;100.00;64029.03;5032609;28;20041;-78
2023/10/12 02:59:59;;;;;;;4.45;1.67;;;;;;;-145.82;100.00;64029.03;5032497;28;20026;-78
2023/10/12 03:02:34;;;;;;;;;;;;;;;-145.82;100.00;64029.03;5032628;28;20034;-78
2023/10/12 03:05:06;;;;;;;6.00;1.50;;;;;;;-145.82;100.00;64029.03;5025262;28;20426;-76
2023/10/12 03:07:40;;;;;;;5.13;1.77;;;;;;;-145.82;100.00;64029.03;5051790;28;20341;-76
2023/10/12 03:10:14;;;;;;;5.18;1.90;;;;;;;-145.82;100.00;64029.03;5052269;28;20450;-76
2023/10/12 03:12:43;;;;;;;3.67;1.60;;;;;;;-145.82;100.00;64029.03;5051863;28;20519;-77
2023/10/12 03:15:12;;;;;;;5.10;1.58;;;;;;;-145.82;100.00;64029.03;5051980;28;20033;-77
2023/10/12 03:17:45;;;;;;;3.95;1.63;;;;;;;-145.82;100.00;64029.03;5051816;28;20454;-77
2023/10/12 03:21:01;;;;;;;4.45;1.52;;;;;;;-145.82;100.00;64029.03;5051632;28;20469;-78
2023/10/12 03:23:12;;;;;;;4.45;1.45;;;;;;;-145.82;100.00;64029.03;5049307;28;20037;-77
2023/10/12 03:25:51;;;;;;;4.47;1.55;;;;;;;-145.82;100.00;64029.03;5051764;28;20119;-77
2023/10/12 03:31:23;;;;;;;2.88;1.52;;;;;;;-145.82;100.00;64029.03;5029615;28;20041;-77
2023/10/12 03:33:54;;;;;;;6.13;2.08;;;;;;;13.89;nan;101316.44;5039252;28;20060;-77
2023/10/12 03:36:23;;;;;;;6.25;2.75;;;;;;;-145.82;100.00;64029.03;5054478;28;20381;-77
2023/10/12 03:39:43;;;;;;;6.70;2.88;;;;;;;13.91;nan;101321.63;5055796;28;20044;-77
2023/10/12 03:44:21;;;;;;;6.38;3.00;;;;;;;13.87;nan;101318.44;5055530;28;20039;-77
2023/10/12 03:46:56;;;;;;;6.10;2.90;;;;;;;13.83;100.00;101318.88;5055293;28;20508;-75
2023/10/12 03:50:20;;;;;;;6.05;2.60;;;;;;;-145.82;100.00;64029.03;5055466;28;20037;-77
2023/10/12 03:53:56;;;;;;;4.78;2.72;;;;;;;-145.82;100.00;64029.03;5055316;28;20048;-77
2023/10/12 03:56:38;;;;;;;4.63;2.85;;;;;;;13.83;nan;101318.88;5055834;28;20068;-77
2023/10/12 04:03:35;;;;;;;9.32;4.97;;;;;;;-145.82;100.00;64029.03;5055648;28;20141;-76
2023/10/12 04:10:41;;;;;;;11.27;6.18;;;;;;;-145.82;nan;77376.88;5034832;28;20042;-77
2023/10/12 04:16:09;;;;;;;13.43;7.03;;;;;;;13.38;nan;101337.34;5035352;28;20500;-76
2023/10/12 04:19:29;;;;;;;18.23;7.65;;;;;;;13.35;nan;101336.81;5035080;28;20462;-76
2023/10/12 04:21:28;;;;;;;16.45;6.88;;;;;;;13.32;nan;101345.06;5024193;28;20382;-76
2023/10/12 04:26:38;;;;;;;32.65;9.52;;;;;;;13.32;nan;101343.25;5035332;28;20068;-76
2023/10/12 04:29:10;;;;;;;18.58;7.05;;;;;;;-145.82;100.00;64029.03;5034846;28;20454;-77
2023/10/12 04:34:10;;;;;;;16.10;7.35;;;;;;;13.23;nan;101344.13;5034781;28;20103;-76
2023/10/12 04:41:38;;;;;;;16.50;6.65;;;;;;;13.20;nan;101347.91;5034457;28;20475;-76
2023/10/12 04:48:07;;;;;;;13.70;5.72;;;;;;;-145.82;100.00;64029.03;5034765;28;20117;-77
2023/10/12 04:51:31;;;;;;;12.82;5.43;;;;;;;-145.82;100.00;64029.03;5034355;28;20087;-77
2023/10/12 04:54:24;;;;;;;11.32;4.78;;;;;;;13.20;nan;101347.91;5034053;28;20034;-76
2023/10/12 04:58:04;;;;;;;13.77;4.85;;;;;;;-145.82;100.00;64029.03;5034182;28;20121;-76
2023/10/12 05:01:40;;;;;;;;;;;;;;;-145.82;100.00;64029.03;5034824;28;20114;-76
2023/10/12 05:05:14;;;;;;;7.60;3.50;;;;;;;-145.82;100.00;64029.03;5034247;28;19913;-76
2023/10/12 05:07:53;;;;;;;7.93;3.80;;;;;;;13.20;nan;101347.91;5033834;28;20536;-75
2023/10/12 05:11:18;;;;;;;6.65;3.40;;;;;;;-145.82;100.00;64029.03;5034173;28;20083;-76
2023/10/12 05:13:43;;;;;;;8.20;4.10;;;;;;;13.20;nan;101347.91;5034165;28;20087;-77
2023/10/12 05:17:09;;;;;;;10.52;3.75;;;;;;;-145.82;100.00;64029.03;5034241;28;20064;-76
2023/10/12 05:19:35;;;;;;;10.05;3.90;;;;;;;12.95;nan;101397.41;5034158;28;20029;-77
2023/10/12 05:22:01;;;;;;;7.50;4.18;;;;;;;-145.82;100.00;64029.03;5033851;28;20411;-76
2023/10/12 05:24:26;;;;;;;8.85;3.95;;;;;;;-145.82;100.00;64029.03;5033923;28;20079;-76
2023/10/12 05:26:57;;;;;;;8.00;4.05;;;;;;;-145.82;100.00;64029.03;5033877;28;20040;-76
2023/10/12 05:31:59;;;;;;;9.00;4.05;;;;;;;-145.82;100.00;64029.03;5033510;28;20098;-75
2023/10/12 05:39:46;;;;;;;13.07;5.18;;;;;;;-145.82;100.00;64029.03;5033438;28;20410;-75
2023/10/12 05:42:12;;;;;;;13.68;5.30;;;;;;;-145.82;100.00;64029.03;5033420;28;20404;-76
2023/10/12 05:44:42;;;;;;;17.02;6.40;;;;;;;-145.82;100.00;64029.03;5033348;28;20142;-77
2023/10/12 05:47:11;;;;;;;16.83;5.78;;;;;;;-145.82;100.00;64029.03;5034135;28;20120;-76
2023/10/12 05:49:37;;;;;;;15.68;5.75;;;;;;;-145.82;100.00;64029.03;4999867;28;20057;-77
2023/10/12 05:52:07;;;;;;;17.13;6.20;;;;;;;12.52;nan;101418.22;5015463;28;20464;-76
2023/10/12 05:54:34;;;;;;;20.95;6.82;;;;;;;12.44;nan;101417.19;5032663;28;20053;-77
2023/10/12 05:57:05;;;;;;;25.92;6.53;;;;;;;12.45;nan;101422.41;5033158;28;20025;-76
2023/10/12 05:59:31;;;;;;;24.15;10.23;;;;;;;12.44;nan;101423.38;5015506;28;20033;-77
2023/10/12 06:01:56;;;;;;;17.80;6.43;;;;;;;12.44;nan;101419.88;5032907;28;20034;-76
2023/10/12 06:04:22;;;;;;;13.90;5.95;;;;;;;12.34;nan;101410.00;5014522;28;20075;-75
2023/10/12 06:06:48;;;;;;;24.65;6.90;;;;;;;12.32;nan;101419.13;5015667;28;20125;-76
2023/10/12 06:09:20;;;;;;;23.10;7.43;;;;;;;12.28;nan;101426.53;5033516;28;20057;-74
2023/10/12 06:12:06;;;;;;;22.48;8.57;;;;;;;12.28;nan;84981.63;5016334;28;20461;-76
2023/10/12 06:15:09;;;;;;;25.17;8.60;;;;;;;12.28;nan;101426.53;5033480;28;20139;-74
2023/10/12 06:18:37;;;;;;;27.50;9.07;;;;;;;-145.82;100.00;64029.03;5033227;28;20033;-75
2023/10/12 06:22:13;;;;;;;29.63;10.15;;;;;;;-145.82;100.00;64029.03;5024130;28;20041;-75
2023/10/12 06:25:38;;;;;;;28.02;9.50;;;;;;;-145.82;100.00;64029.03;5032624;28;20065;-75
2023/10/12 06:29:08;;;;;;;33.83;11.57;;;;;;;-145.82;100.00;64029.03;5032444;28;20048;-75
2023/10/12 06:32:32;;;;;;;33.35;12.38;;;;;;;-145.82;100.00;64029.03;5015711;28;20037;-76
2023/10/12 06:35:59;;;;;;;38.38;13.48;;;;;;;-145.82;100.00;64029.03;5014624;28;20048;-76
2023/10/12 06:38:47;;;;;;;41.20;12.18;;;;;;;12.28;nan;101426.53;5032102;28;20060;-76
2023/10/12 06:42:25;;;;;;;36.90;12.02;;;;;;;-145.82;100.00;64029.03;5032386;28;20029;-75
2023/10/12 06:45:52;;;;;;;32.25;11.63;;;;;;;-145.82;100.00;64029.03;5032609;28;20251;-75
2023/10/12 06:49:18;;;;;;;30.00;11.73;;;;;;;-145.82;100.00;64029.03;5032912;28;20068;-75
2023/10/12 06:52:45;;;;;;;37.25;12.82;;;;;;;-145.82;100.00;64029.03;5032344;28;20033;-76
2023/10/12 07:02:36;;;;;;;38.40;13.25;;;;;;;-145.82;100.00;64029.03;5032219;28;20430;-75
2023/10/12 07:06:01;;;;;;;36.03;13.75;;;;;;;-145.82;100.00;64029.03;5025762;28;20140;-75
2023/10/12 07:09:40;;;;;;;30.30;11.23;;;;;;;-145.82;100.00;64029.03;5057074;28;20040;-77
2023/10/12 07:13:09;;;;;;;25.20;9.27;;;;;;;-145.82;100.00;64029.03;5057957;28;20033;-77
2023/10/12 07:15:43;;;;;;;26.85;9.27;;;;;;;12.28;nan;101426.53;5058399;28;20059;-75
2023/10/12 07:18:15;;;;;;;19.10;7.90;;;;;;;12.28;nan;101426.53;5056549;28;20139;-75
2023/10/12 07:20:43;;;;;;;21.23;7.82;;;;;;;12.28;nan;101426.53;5057224;28;20103;-74
2023/10/12 07:24:07;;;;;;;19.83;7.20;;;;;;;-145.82;100.00;64029.03;5057011;28;20040;-75
2023/10/12 07:27:48;;;;;;;17.88;6.82;;;;;;;-145.82;100.00;64029.03;5057484;28;20465;-75
2023/10/12 07:34:39;;;;;;;15.45;6.18;;;;;;;-145.82;100.00;64029.03;5057937;28;20329;-77
2023/10/12 07:38:15;;;;;;;16.02;6.10;;;;;;;-145.82;100.00;64029.03;5057838;28;20165;-76
2023/10/12 07:41:41;;;;;;;17.50;5.85;;;;;;;-145.82;100.00;64029.03;5058301;28;20106;-76
2023/10/12 07:44:08;;;;;;;15.48;5.22;;;;;;;-145.82;100.00;64029.03;5056516;28;20033;-77
2023/10/12 07:46:35;;;;;;;16.63;6.07;;;;;;;12.25;nan;101503.38;5056970;28;20072;-76
2023/10/12 07:50:08;;;;;;;23.02;6.28;;;;;;;-145.82;100.00;64029.03;5057404;28;20041;-77
2023/10/12 07:56:01;;;;;;;17.52;6.35;;;;;;;-145.82;100.00;64029.03;5058009;28;20139;-77
2023/10/12 07:59:29;;;;;;;16.27;6.32;;;;;;;-145.82;100.00;64029.03;5057722;28;20128;-76
2023/10/12 08:06:36;;;;;;;16.48;5.28;;;;;;;-145.82;100.00;64029.03;5056882;28;20053;-76
2023/10/12 08:10:09;;;;;;;10.98;4.57;;;;;;;-145.82;100.00;64029.03;5058100;28;20032;-77
2023/10/12 08:12:37;;;;;;;9.80;4.95;;;;;;;12.25;nan;101503.38;5058693;28;20048;-76
2023/10/12 08:16:04;;;;;;;17.30;5.50;;;;;;;-145.82;100.00;64029.03;5058837;28;20037;-77
2023/10/12 08:19:28;;;;;;;13.40;4.90;;;;;;;-145.82;100.00;64029.03;5038063;28;20410;-76
2023/10/12 08:23:02;;;;;;;12.60;5.10;;;;;;;-145.82;100.00;64029.03;5055670;28;20037;-77
2023/10/12 08:26:47;;;;;;;15.05;6.28;;;;;;;-145.82;100.00;64029.03;5054975;28;20044;-75
2023/10/12 08:30:02;;;;;;;12.60;4.90;;;;;;;-145.82;100.00;64029.03;5055927;28;20033;-76
2023/10/12 08:32:34;;;;;;;15.32;5.60;;;;;;;-145.82;100.00;64029.03;5055650;28;20033;-76
2023/10/12 08:37:35;;;;;;;16.42;5.88;;;;;;;12.75;nan;101537.25;5054833;28;20457;-77
2023/10/12 08:40:18;;;;;;;14.77;5.78;;;;;;;-145.82;100.00;64029.03;5053497;28;20048;-77
2023/10/12 08:42:55;;;;;;;12.88;4.82;;;;;;;-145.82;100.00;64029.03;5056062;28;20040;-76
2023/10/12 08:45:23;;;;;;;14.50;5.30;;;;;;;-145.82;100.00;64029.03;5055482;28;20029;-74
2023/10/12 08:47:51;;;;;;;14.35;5.18;;;;;;;-145.82;100.00;64029.03;5055673;28;20056;-77
2023/10/12 08:52:50;;;;;;;14.68;4.25;;;;;;;12.64;nan;101530.19;5055897;28;20441;-75
2023/10/12 08:55:20;;;;;;;13.20;4.72;;;;;;;12.55;nan;101518.50;5055809;28;20039;-76
2023/10/12 08:58:01;;;;;;;13.88;4.75;;;;;;;12.52;nan;101508.09;5056136;28;20029;-76
2023/10/12 09:03:08;;;;;;;13.60;4.68;;;;;;;12.56;nan;101508.69;5054984;28;20044;-86
2023/10/12 09:05:35;;;;;;;17.38;4.97;;;;;;;12.61;nan;101509.09;5044872;28;20059;-75
2023/10/12 09:13:20;;;;;;;17.73;5.47;;;;;;;12.78;nan;101503.13;5036290;28;20458;-78
2023/10/12 09:15:46;;;;;;;16.67;5.63;;;;;;;12.79;nan;101495.94;5016869;28;20064;-77
2023/10/12 09:18:14;;;;;;;16.05;5.80;;;;;;;12.79;nan;101496.78;5034369;28;20025;-79
2023/10/12 09:20:57;;;;;;;15.15;5.80;;;;;;;12.79;nan;101493.28;5034201;28;20108;-78
2023/10/12 09:29:20;;;;;;;14.82;5.65;;;;;;;12.73;nan;101483.97;5034222;28;20415;-77
2023/10/12 09:33:55;;;;;;;17.88;5.68;;;;;;;12.73;nan;101488.47;5034323;28;20037;-78
2023/10/12 09:36:22;;;;;;;16.42;5.68;;;;;;;12.73;nan;101486.66;5034045;28;20428;-78
2023/10/12 09:38:48;;;;;;;15.73;5.28;;;;;;;12.72;nan;101486.78;5034506;28;20037;-78
2023/10/12 09:41:19;;;;;;;15.40;5.68;;;;;;;12.80;nan;101485.13;5034021;28;20076;-78
2023/10/12 09:43:48;;;;;;;20.45;6.05;;;;;;;-145.82;100.00;64029.03;5033975;28;20029;-78
2023/10/12 09:46:17;;;;;;;13.23;5.57;;;;;;;12.75;nan;101479.38;5033762;28;20092;-78
2023/10/12 09:48:44;;;;;;;15.88;5.55;;;;;;;12.71;nan;101475.28;5033877;28;20061;-77
2023/10/12 09:51:20;;;;;;;14.60;5.93;;;;;;;-145.82;100.00;64029.03;5016349;28;20029;-79
2023/10/12 09:53:57;;;;;;;16.42;5.57;;;;;;;-145.82;100.00;64029.03;5016164;28;20162;-78
2023/10/12 09:56:28;;;;;;;10.55;4.55;;;;;;;12.77;nan;101468.53;5034106;28;20044;-78
2023/10/12 09:59:13;;;;;;;13.30;5.07;;;;;;;12.72;nan;101462.75;5033947;28;20179;-78
2023/10/12 10:07:17;;;;;;;10.80;4.25;;;;;;;12.91;nan;101452.09;5033418;28;20436;-79
2023/10/12 10:09:54;;;;;;;9.77;4.83;;;;;;;12.96;nan;101447.19;5034178;28;20024;-78
2023/10/12 10:12:22;;;;;;;9.98;4.88;;;;;;;13.00;nan;101442.41;5015766;28;20798;-81
2023/10/12 10:15:10;;;;;;;14.93;4.80;;;;;;;13.05;nan;101450.84;5033118;28;20505;-79
2023/10/12 10:17:36;;;;;;;9.00;4.60;;;;;;;13.09;nan;101449.56;5033981;28;20037;-79
2023/10/12 10:23:12;;;;;;;10.45;5.28;;;;;;;13.12;nan;101443.09;4999663;28;20128;-78
2023/10/12 10:25:50;;;;;;;11.82;5.72;;;;;;;13.14;nan;101431.31;5033277;28;20091;-78
2023/10/12 10:28:23;;;;;;;13.05;6.30;;;;;;;13.21;nan;101429.75;5033050;28;20033;-78
2023/10/12 10:30:50;;;;;;;11.90;6.45;;;;;;;13.28;nan;101426.50;5033093;28;20025;-78
2023/10/12 10:33:22;;;;;;;14.80;6.47;;;;;;;13.29;nan;101428.22;5032656;28;20116;-78
2023/10/12 10:36:13;;;;;;;13.32;6.72;;;;;;;13.31;nan;101431.56;5016202;28;20037;-78
2023/10/12 10:41:18;;;;;;;12.75;6.78;;;;;;;13.28;nan;101421.16;5032605;28;20064;-78
2023/10/12 10:43:46;;;;;;;14.07;7.07;;;;;;;13.29;nan;101423.69;5032867;28;20090;-78
2023/10/12 10:46:13;;;;;;;13.18;7.55;;;;;;;13.26;nan;101413.28;5032465;28;20471;-79
2023/10/12 10:48:49;;;;;;;15.35;7.50;;;;;;;13.22;nan;101428.75;5015147;28;20423;-76
2023/10/12 10:51:19;;;;;;;14.10;7.38;;;;;;;13.19;nan;101425.53;5033158;28;20045;-78
2023/10/12 10:53:54;;;;;;;13.90;7.78;;;;;;;13.19;nan;101423.69;5033306;28;20029;-78
2023/10/12 10:56:37;;;;;;;15.45;8.38;;;;;;;13.19;nan;101436.22;5032734;28;20335;-79
2023/10/12 10:59:07;;;;;;;20.08;8.75;;;;;;;13.18;nan;101439.88;5033082;28;20115;-78
2023/10/12 11:01:32;;;;;;;35.22;8.95;;;;;;;13.15;nan;101426.78;5015798;28;20463;-77
2023/10/12 11:03:58;;;;;;;21.88;9.02;;;;;;;13.16;nan;101412.47;5032517;28;20036;-78
2023/10/12 11:06:28;;;;;;;19.30;8.85;;;;;;;13.18;nan;101413.16;5033269;28;20458;-79
2023/10/12 11:09:14;;;;;;;24.20;9.80;;;;;;;13.21;nan;101412.88;5032996;28;20128;-78
2023/10/12 11:11:48;;;;;;;19.23;9.10;;;;;;;13.23;nan;101408.25;5032859;28;20021;-77
2023/10/12 11:14:17;;;;;;;20.70;8.60;;;;;;;13.25;nan;101402.75;5032192;28;20044;-75
2023/10/12 11:16:46;;;;;;;16.88;9.20;;;;;;;13.28;nan;101403.28;5031861;28;20052;-80
2023/10/12 11:19:12;;;;;;;19.10;8.82;;;;;;;13.26;nan;101402.59;5014639;28;20462;-77
2023/10/12 11:21:46;;;;;;;20.58;8.35;;;;;;;13.23;nan;101393.03;5031236;28;20033;-81
2023/10/12 11:24:13;;;;;;;22.08;8.82;;;;;;;13.25;nan;101398.25;5014345;28;20571;-79
2023/10/12 11:26:56;;;;;;;21.83;9.57;;;;;;;13.27;nan;101382.94;5031300;28;20458;-79
2023/10/12 11:29:24;;;;;;;26.92;10.32;;;;;;;13.31;nan;101376.28;5031183;28;20095;-78
2023/10/12 11:32:09;;;;;;;19.50;9.20;;;;;;;13.33;nan;101374.34;5014591;28;20133;-79
2023/10/12 11:34:44;;;;;;;24.05;10.63;;;;;;;13.36;nan;101367.88;5031339;28;20025;-79
2023/10/12 11:37:13;;;;;;;20.67;10.45;;;;;;;13.38;nan;101366.75;5031198;28;20048;-78
2023/10/12 11:39:51;;;;;;;23.23;9.77;;;;;;;13.44;nan;101364.50;5031340;28;20107;-80
2023/10/12 11:42:17;;;;;;;21.30;9.95;;;;;;;13.47;nan;101354.34;5032152;28;20029;-80
2023/10/12 11:44:46;;;;;;;27.83;11.95;;;;;;;13.50;nan;101342.53;5031829;28;20055;-79
2023/10/12 11:47:38;;;;;;;24.50;11.25;;;;;;;13.50;nan;101345.19;5030913;28;20450;-79
2023/10/12 11:50:09;;;;;;;26.17;12.15;;;;;;;13.49;nan;101341.66;5031924;28;20107;-78
2023/10/12 11:52:34;;;;;;;27.75;12.50;;;;;;;13.51;nan;101344.19;5031929;28;20029;-79
2023/10/12 11:55:20;;;;;;;29.02;12.40;;;;;;;13.53;nan;101344.91;5035179;28;20385;-79
2023/10/12 11:57:54;;;;;;;37.17;13.98;;;;;;;13.54;nan;101342.09;5035357;28;20109;-78
2023/10/12 12:00:29;;;;;;;29.88;12.73;;;;;;;13.56;nan;101347.28;5035069;28;20528;-79
2023/10/12 12:03:02;;;;;;;27.98;12.73;;;;;;;13.59;nan;101349.66;5035212;28;20056;-79
2023/10/12 12:05:32;;;;;;;37.50;14.98;;;;;;;13.61;nan;101350.34;5034567;28;20053;-78
2023/10/12 12:07:59;;;;;;;40.63;14.77;;;;;;;13.64;nan;101359.91;5034879;28;20469;-80
2023/10/12 12:13:08;;;;;;;34.58;14.63;;;;;;;13.69;nan;101379.03;5035084;28;20069;-79
2023/10/12 12:15:37;;;;;;;37.47;15.20;;;;;;;13.69;nan;101395.94;5034422;28;20120;-79
2023/10/12 12:18:09;;;;;;;35.33;14.80;;;;;;;13.69;nan;101406.63;5035196;28;20086;-78
2023/10/12 12:20:38;;;;;;;32.67;14.27;;;;;;;13.70;nan;101407.47;5034810;28;20053;-76
2023/10/12 12:23:05;;;;;;;77.28;12.82;;;;;;;13.67;nan;101408.56;5034878;28;20085;-76
2023/10/12 12:25:39;;;;;;;54.70;9.70;;;;;;;13.63;nan;101393.84;5034858;28;20505;-76
2023/10/12 12:28:07;;;;;;;47.88;9.25;;;;;;;13.58;nan;101362.19;5035035;28;20045;-76
2023/10/12 12:30:35;;;;;;;26.52;8.73;;;;;;;13.57;nan;101354.31;5016768;28;20029;-76
2023/10/12 12:33:08;;;;;;;14.63;6.82;;;;;;;13.58;nan;101343.47;5034469;28;20045;-78
2023/10/12 12:35:36;;;;;;;14.35;5.30;;;;;;;13.61;nan;101342.31;5017297;28;20386;-77
2023/10/12 12:38:04;;;;;;;15.48;5.47;;;;;;;13.61;nan;101339.66;5034436;28;20377;-76
2023/10/12 12:40:31;;;;;;;16.50;6.20;;;;;;;13.65;nan;101329.53;5016861;28;20474;-76
2023/10/12 12:42:57;;;;;;;14.65;5.78;;;;;;;13.67;nan;101327.53;5034395;28;20025;-76
2023/10/12 12:45:23;;;;;;;10.30;4.97;;;;;;;13.71;nan;101324.41;5034117;28;20025;-77
2023/10/12 12:47:49;;;;;;;10.15;5.53;;;;;;;13.84;nan;101333.91;5034287;28;20032;-84
2023/10/12 12:50:14;;;;;;;11.95;4.97;;;;;;;13.97;nan;101328.22;5033889;28;20534;-79
2023/10/12 12:52:41;;;;;;;12.13;4.47;;;;;;;14.10;nan;101334.91;5034584;28;20087;-78
2023/10/12 12:55:10;;;;;;;6.45;4.18;;;;;;;14.18;nan;101328.81;5034095;28;20442;-80
2023/10/12 12:57:39;;;;;;;12.07;4.47;;;;;;;14.20;nan;101317.97;5017385;28;20029;-78
2023/10/12 13:00:08;;;;;;;7.88;4.80;;;;;;;14.19;nan;101297.53;5034464;28;20038;-78
2023/10/12 13:02:36;;;;;;;11.85;6.45;;;;;;;14.18;nan;101303.88;5034339;28;20335;-79
2023/10/12 13:05:04;;;;;;;13.73;8.27;;;;;;;14.17;nan;101294.19;5035068;28;20065;-77
2023/10/12 13:07:30;;;;;;;16.92;9.32;;;;;;;14.19;nan;101273.44;5033664;28;20182;-77
2023/10/12 13:09:56;;;;;;;29.45;13.25;;;;;;;14.22;nan;101257.09;5015942;28;20143;-76
2023/10/12 13:12:22;;;;;;;27.63;14.10;;;;;;;14.27;nan;101268.16;5033625;28;20025;-81
2023/10/12 13:14:48;;;;;;;42.45;19.17;;;;;;;14.33;nan;101278.28;5033656;28;20041;-76
2023/10/12 13:17:16;;;;;;;46.10;21.23;;;;;;;14.42;nan;101292.56;5033695;28;20095;-78
2023/10/12 13:19:44;;;;;;;48.88;22.27;;;;;;;14.50;nan;101308.72;5033851;28;20031;-76
2023/10/12 13:22:10;;;;;;;54.53;26.08;;;;;;;14.57;nan;101317.81;5033581;28;20036;-76
2023/10/12 13:24:37;;;;;;;55.67;28.67;;;;;;;14.65;nan;101311.72;5033759;28;20033;-76
2023/10/12 13:27:08;;;;;;;52.95;26.50;;;;;;;14.73;nan;101297.56;5032930;28;20434;-76
2023/10/12 13:29:33;;;;;;;;;;;;;;;14.82;nan;101304.66;5033523;28;20064;-75
2023/10/12 13:31:59;;;;;;;39.28;21.33;;;;;;;14.86;nan;101307.88;5014993;28;19956;-77
2023/10/12 13:34:24;;;;;;;40.35;21.15;;;;;;;14.88;nan;101308.56;5033263;28;20034;-82
2023/10/12 13:36:52;;;;;;;38.58;20.60;;;;;;;14.97;nan;101305.78;5032992;28;20148;-75
2023/10/12 13:39:17;;;;;;;42.92;22.00;;;;;;;15.14;nan;101309.41;5016049;28;20033;-76
2023/10/12 13:41:42;;;;;;;39.85;20.60;;;;;;;15.16;nan;101309.25;5033529;28;20442;-75
2023/10/12 13:44:08;;;;;;;37.78;20.55;;;;;;;15.18;nan;101315.28;5015271;28;20033;-75
2023/10/12 13:46:38;;;;;;;46.88;23.05;;;;;;;15.25;nan;101315.50;5033041;28;20049;-78
2023/10/12 13:49:06;;;;;;;47.85;22.38;;;;;;;15.44;nan;101323.31;5033367;28;20029;-75
2023/10/12 13:51:32;;;;;;;36.97;20.20;;;;;;;15.52;nan;101331.44;5033203;28;20040;-77
2023/10/12 13:54:01;;;;;;;43.35;20.48;;;;;;;15.49;nan;101321.00;5033129;28;20124;-76
2023/10/12 13:56:28;;;;;;;33.72;18.35;;;;;;;15.43;nan;101327.00;5032955;28;20539;-76
2023/10/12 13:58:57;;;;;;;33.40;17.58;;;;;;;15.42;nan;101325.34;5033162;28;20032;-76
2023/10/12 14:01:23;;;;;;;36.88;18.42;;;;;;;15.46;nan;101326.69;5033647;28;20485;-77